Time;durP1;ratioP1;P1;durP2;ratioP2;P2;SDS_P1;SDS_P2;PMS_P1;PMS_P2;Temp;Humidity;BMP_temperature;BMP_pressure;BME280_temperature;BME280_humidity;BME280_pressure;Samples;Min_cycle;Max_cycle;Signal;HPM_P1;HPM_P2
2022/05/22 00:01:02;;;;;;;5.20;4.03;;;;;;;;;;5019757;28;20103;-53
2022/05/22 00:03:27;;;;;;;6.47;3.83;;;;;;;;;;5018240;28;20060;-53
2022/05/22 00:05:52;;;;;;;6.40;3.80;;;;;;;;;;5018619;28;20794;-52
2022/05/22 00:08:18;;;;;;;6.55;4.20;;;;;;;;;;5016719;28;20357;-53
2022/05/22 00:10:43;;;;;;;5.30;3.80;;;;;;;;;;5018378;28;20710;-52
2022/05/22 00:13:08;;;;;;;4.70;3.53;;;;;;;;;;5018001;28;20371;-52
2022/05/22 00:15:37;;;;;;;5.77;3.80;;;;;;;;;;5017932;28;20264;-52
2022/05/22 00:18:03;;;;;;;6.03;3.75;;;;;;;;;;5029684;28;20088;-53
2022/05/22 00:20:28;;;;;;;4.77;3.50;;;;;;;;;;5016988;28;20029;-51
2022/05/22 00:22:53;;;;;;;4.97;3.47;;;;;;;;;;5021008;28;20259;-52
2022/05/22 00:25:18;;;;;;;4.00;3.57;;;;;;;;;;5022146;28;20862;-51
2022/05/22 00:27:43;;;;;;;5.13;3.73;;;;;;;;;;5024504;28;20551;-51
2022/05/22 00:30:09;;;;;;;5.53;3.60;;;;;;;;;;5023726;28;20350;-52
2022/05/22 00:32:35;;;;;;;6.55;3.80;;;;;;;;;;5022428;28;20347;-52
2022/05/22 00:35:01;;;;;;;4.45;3.80;;;;;;;;;;5024162;28;20103;-51
2022/05/22 00:37:26;;;;;;;5.40;3.25;;;;;;;;;;5023004;28;20044;-52
2022/05/22 00:39:51;;;;;;;5.27;3.60;;;;;;;;;;5025949;28;20025;-52
2022/05/22 00:42:18;;;;;;;6.97;3.57;;;;;;;;;;5022691;28;20511;-56
2022/05/22 00:44:43;;;;;;;4.55;3.60;;;;;;;;;;5023401;28;20033;-52
2022/05/22 00:47:08;;;;;;;5.07;3.53;;;;;;;;;;5023336;28;20066;-54
2022/05/22 00:49:35;;;;;;;4.63;3.70;;;;;;;;;;5025247;28;20776;-52
2022/05/22 00:52:07;;;;;;;5.68;3.65;;;;;;;;;;5020396;28;20292;-53
2022/05/22 00:54:47;;;;;;;5.18;3.35;;;;;;;;;;5040708;28;20037;-53
2022/05/22 00:57:17;;;;;;;4.00;3.28;;;;;;;;;;5027370;28;20038;-54
2022/05/22 01:00:20;;;;;;;3.90;3.50;;;;;;;;;;5024002;28;20039;-51
2022/05/22 01:05:30;;;;;;;5.47;3.53;;;;;;;;;;5019587;28;20032;-52
2022/05/22 01:07:56;;;;;;;5.33;3.77;;;;;;;;;;5018330;28;20029;-52
2022/05/22 01:10:21;;;;;;;5.57;3.42;;;;;;;;;;5037888;28;20061;-52
2022/05/22 01:12:46;;;;;;;4.97;3.50;;;;;;;;;;5036820;28;20468;-53
2022/05/22 01:15:11;;;;;;;4.07;3.03;;;;;;;;;;5039093;28;20032;-53
2022/05/22 01:17:47;;;;;;;7.70;3.80;;;;;;;;;;5020985;28;20033;-54
2022/05/22 01:20:12;;;;;;;4.68;3.50;;;;;;;;;;5019298;28;20532;-55
2022/05/22 01:22:38;;;;;;;5.85;3.85;;;;;;;;;;5022794;28;20045;-53
2022/05/22 01:25:04;;;;;;;4.20;3.40;;;;;;;;;;5025427;28;20037;-52
2022/05/22 01:27:29;;;;;;;7.15;4.03;;;;;;;;;;5021525;28;20381;-53
2022/05/22 01:30:09;;;;;;;3.95;2.83;;;;;;;;;;5022530;28;20064;-52
2022/05/22 01:32:35;;;;;;;4.35;3.40;;;;;;;;;;5039026;28;20025;-52
2022/05/22 01:35:00;;;;;;;6.85;4.00;;;;;;;;;;5024850;28;20027;-51
2022/05/22 01:37:25;;;;;;;4.67;3.20;;;;;;;;;;5018998;28;20013;-52
2022/05/22 01:39:52;;;;;;;6.67;3.53;;;;;;;;;;5020239;28;20275;-51
2022/05/22 01:42:17;;;;;;;4.97;3.20;;;;;;;;;;5021313;28;20017;-51
2022/05/22 01:44:42;;;;;;;5.32;3.10;;;;;;;;;;5024491;28;20124;-51
2022/05/22 01:47:07;;;;;;;3.83;3.07;;;;;;;;;;5021546;28;20022;-52
2022/05/22 01:49:33;;;;;;;3.33;3.00;;;;;;;;;;5021743;28;20412;-53
2022/05/22 01:51:59;;;;;;;7.17;3.40;;;;;;;;;;5021261;28;20404;-50
2022/05/22 01:54:24;;;;;;;3.72;2.90;;;;;;;;;;5021975;28;20474;-52
2022/05/22 01:56:49;;;;;;;3.13;2.83;;;;;;;;;;5019602;28;20036;-52
2022/05/22 01:59:14;;;;;;;4.03;2.70;;;;;;;;;;5023944;28;20040;-52
2022/05/22 02:01:39;;;;;;;5.15;2.80;;;;;;;;;;5020887;28;20020;-52
2022/05/22 02:04:05;;;;;;;3.60;2.80;;;;;;;;;;5021506;28;20022;-50
2022/05/22 02:06:30;;;;;;;5.30;2.90;;;;;;;;;;5017091;28;20222;-52
2022/05/22 02:08:55;;;;;;;4.50;2.93;;;;;;;;;;5020110;28;20017;-53
2022/05/22 02:11:21;;;;;;;4.30;2.85;;;;;;;;;;5020930;28;20017;-52
2022/05/22 02:13:48;;;;;;;3.73;2.33;;;;;;;;;;5023984;28;20025;-53
2022/05/22 02:16:13;;;;;;;3.67;2.67;;;;;;;;;;5020441;28;20018;-53
2022/05/22 02:18:38;;;;;;;4.50;2.57;;;;;;;;;;5021580;28;20044;-53
2022/05/22 02:21:03;;;;;;;4.07;2.57;;;;;;;;;;5016727;28;20017;-53
2022/05/22 02:23:30;;;;;;;5.10;3.03;;;;;;;;;;5019805;28;20268;-52
2022/05/22 02:25:55;;;;;;;5.32;2.38;;;;;;;;;;5037870;28;20040;-52
2022/05/22 02:28:21;;;;;;;4.22;2.80;;;;;;;;;;5021995;28;20017;-53
2022/05/22 02:30:48;;;;;;;4.07;2.20;;;;;;;;;;5021971;28;20049;-53
2022/05/22 02:33:14;;;;;;;3.42;2.40;;;;;;;;;;5022615;28;20021;-54
2022/05/22 02:35:39;;;;;;;2.90;2.23;;;;;;;;;;5021319;28;20020;-54
2022/05/22 02:38:04;;;;;;;2.57;2.23;;;;;;;;;;5021898;28;20048;-53
2022/05/22 02:40:30;;;;;;;4.10;2.53;;;;;;;;;;5037682;28;20354;-53
2022/05/22 02:42:55;;;;;;;3.10;2.08;;;;;;;;;;5033492;28;20080;-53
2022/05/22 02:45:21;;;;;;;3.53;2.10;;;;;;;;;;5020042;28;20026;-55
2022/05/22 02:47:47;;;;;;;4.65;2.45;;;;;;;;;;5036314;28;20017;-52
2022/05/22 02:50:12;;;;;;;3.58;2.42;;;;;;;;;;5022730;28;20468;-52
2022/05/22 02:52:37;;;;;;;5.75;2.15;;;;;;;;;;5021455;28;20531;-52
2022/05/22 02:55:03;;;;;;;3.20;2.27;;;;;;;;;;5020054;28;20030;-52
2022/05/22 02:57:28;;;;;;;2.90;2.00;;;;;;;;;;5021561;28;20032;-52
2022/05/22 02:59:54;;;;;;;2.40;2.00;;;;;;;;;;5036649;28;20037;-52
2022/05/22 03:02:19;;;;;;;3.63;2.17;;;;;;;;;;5019567;28;20413;-51
2022/05/22 03:04:44;;;;;;;2.93;1.67;;;;;;;;;;5021767;28;20496;-53
2022/05/22 03:07:10;;;;;;;3.47;2.00;;;;;;;;;;5022459;28;20325;-53
2022/05/22 03:09:36;;;;;;;3.38;1.95;;;;;;;;;;5021568;28;20028;-52
2022/05/22 03:12:08;;;;;;;5.30;1.80;;;;;;;;;;5020945;28;20527;-53
2022/05/22 03:14:33;;;;;;;3.38;1.83;;;;;;;;;;5019750;28;20025;-50
2022/05/22 03:16:59;;;;;;;2.78;1.75;;;;;;;;;;5014115;28;20033;-52
2022/05/22 03:19:24;;;;;;;3.25;1.80;;;;;;;;;;5016266;28;20496;-52
2022/05/22 03:21:50;;;;;;;4.17;1.50;;;;;;;;;;5015421;28;20488;-52
2022/05/22 03:24:15;;;;;;;3.72;1.80;;;;;;;;;;5020997;28;20323;-51
2022/05/22 03:26:40;;;;;;;2.55;1.70;;;;;;;;;;5014759;28;20614;-53
2022/05/22 03:29:05;;;;;;;2.40;1.53;;;;;;;;;;5006122;28;20629;-51
2022/05/22 03:31:31;;;;;;;2.57;1.60;;;;;;;;;;5012102;28;20943;-53
2022/05/22 03:33:56;;;;;;;3.13;1.50;;;;;;;;;;5006745;28;20473;-53
2022/05/22 03:36:21;;;;;;;3.87;1.50;;;;;;;;;;5017307;28;20710;-52
2022/05/22 03:38:46;;;;;;;4.30;1.53;;;;;;;;;;5019148;28;20296;-50
2022/05/22 03:41:12;;;;;;;1.80;1.38;;;;;;;;;;5019945;28;20287;-50
2022/05/22 03:43:38;;;;;;;3.40;1.40;;;;;;;;;;5010419;28;20042;-50
2022/05/22 03:46:03;;;;;;;2.45;1.50;;;;;;;;;;5006773;28;20028;-51
2022/05/22 03:48:28;;;;;;;4.53;1.40;;;;;;;;;;5006152;28;20018;-49
2022/05/22 03:50:53;;;;;;;2.87;1.40;;;;;;;;;;5010034;28;20268;-51
2022/05/22 03:53:19;;;;;;;2.53;1.70;;;;;;;;;;5013317;28;20025;-51
2022/05/22 03:55:44;;;;;;;1.63;1.33;;;;;;;;;;5003622;28;20462;-49
2022/05/22 03:58:10;;;;;;;3.33;1.53;;;;;;;;;;5010250;28;20847;-51
2022/05/22 04:00:35;;;;;;;3.45;1.50;;;;;;;;;;5020124;28;20279;-50
2022/05/22 04:03:00;;;;;;;2.53;1.30;;;;;;;;;;5019652;28;20018;-51
2022/05/22 04:05:26;;;;;;;2.67;1.40;;;;;;;;;;5016215;28;20569;-51
2022/05/22 04:07:51;;;;;;;2.45;1.30;;;;;;;;;;5008857;28;20020;-51
2022/05/22 04:10:16;;;;;;;5.13;1.27;;;;;;;;;;5005663;28;20014;-51
2022/05/22 04:12:44;;;;;;;2.90;1.60;;;;;;;;;;5036476;28;20785;-54
2022/05/22 04:15:10;;;;;;;4.53;1.30;;;;;;;;;;5012928;28;20032;-59
2022/05/22 04:17:35;;;;;;;1.67;1.23;;;;;;;;;;5023913;28;20030;-53
2022/05/22 04:20:01;;;;;;;1.70;1.40;;;;;;;;;;5013973;28;20690;-53
2022/05/22 04:22:26;;;;;;;3.05;1.60;;;;;;;;;;5011144;28;20115;-51
2022/05/22 04:27:38;;;;;;;2.97;1.30;;;;;;;;;;5021624;28;20040;-52
2022/05/22 04:30:04;;;;;;;2.28;1.50;;;;;;;;;;5004346;28;20080;-52
2022/05/22 04:32:29;;;;;;;2.78;1.45;;;;;;;;;;5003032;28;20520;-52
2022/05/22 04:34:54;;;;;;;3.13;1.53;;;;;;;;;;5016797;28;20029;-50
2022/05/22 04:37:20;;;;;;;3.40;1.27;;;;;;;;;;5020180;28;20122;-51
2022/05/22 04:39:45;;;;;;;2.20;1.30;;;;;;;;;;5015387;28;20334;-51
2022/05/22 04:42:10;;;;;;;3.40;1.60;;;;;;;;;;5024037;28;20052;-51
2022/05/22 04:44:35;;;;;;;5.77;1.40;;;;;;;;;;5021801;28;20021;-52
2022/05/22 04:47:00;;;;;;;2.73;1.43;;;;;;;;;;5022746;28;20018;-53
2022/05/22 04:49:26;;;;;;;3.13;1.38;;;;;;;;;;5019869;28;20041;-52
2022/05/22 04:51:51;;;;;;;2.83;1.30;;;;;;;;;;5019455;28;20576;-53
2022/05/22 04:54:16;;;;;;;2.90;1.20;;;;;;;;;;5017715;28;20112;-51
2022/05/22 04:56:41;;;;;;;3.47;1.50;;;;;;;;;;5008540;28;20488;-51
2022/05/22 04:59:07;;;;;;;2.50;1.40;;;;;;;;;;5013384;28;20747;-50
2022/05/22 05:01:32;;;;;;;2.37;1.50;;;;;;;;;;5010165;28;20010;-52
2022/05/22 05:03:57;;;;;;;3.77;1.40;;;;;;;;;;5012927;28;20025;-51
2022/05/22 05:06:23;;;;;;;1.88;1.20;;;;;;;;;;5023707;28;20359;-51
2022/05/22 05:08:48;;;;;;;3.53;1.40;;;;;;;;;;5018930;28;20021;-51
2022/05/22 05:11:13;;;;;;;3.77;1.40;;;;;;;;;;5017830;28;20005;-53
2022/05/22 05:13:38;;;;;;;3.33;1.50;;;;;;;;;;5022280;28;20037;-51
2022/05/22 05:16:07;;;;;;;3.55;1.35;;;;;;;;;;5016400;28;20082;-52
2022/05/22 05:18:33;;;;;;;2.10;1.50;;;;;;;;;;5005921;28;20017;-52
2022/05/22 05:20:59;;;;;;;2.75;1.30;;;;;;;;;;5007285;28;21444;-52
2022/05/22 05:23:24;;;;;;;3.17;1.42;;;;;;;;;;5022048;28;20037;-52
2022/05/22 05:25:50;;;;;;;3.60;1.43;;;;;;;;;;5003295;28;20017;-52
2022/05/22 05:28:15;;;;;;;2.00;1.40;;;;;;;;;;5009367;28;20036;-51
2022/05/22 05:30:40;;;;;;;2.60;1.83;;;;;;;;;;5004131;28;20783;-53
2022/05/22 05:33:05;;;;;;;4.07;1.50;;;;;;;;;;5004912;28;20036;-52
2022/05/22 05:35:31;;;;;;;3.00;1.57;;;;;;;;;;5004363;28;20659;-52
2022/05/22 05:37:56;;;;;;;2.40;1.30;;;;;;;;;;5004579;28;20112;-51
2022/05/22 05:40:22;;;;;;;3.13;1.40;;;;;;;;;;5003287;28;20076;-54
2022/05/22 05:42:48;;;;;;;2.88;1.40;;;;;;;;;;5003096;28;21663;-53
2022/05/22 05:45:13;;;;;;;3.47;1.50;;;;;;;;;;5002836;28;20034;-51
2022/05/22 05:47:39;;;;;;;2.25;1.42;;;;;;;;;;5008137;28;20856;-52
2022/05/22 05:50:05;;;;;;;3.40;1.30;;;;;;;;;;5006419;28;20025;-54
2022/05/22 05:52:30;;;;;;;1.85;1.23;;;;;;;;;;5005205;28;20518;-54
2022/05/22 05:54:56;;;;;;;2.53;1.47;;;;;;;;;;5003324;28;20030;-52
2022/05/22 05:57:21;;;;;;;2.67;1.30;;;;;;;;;;5004442;28;20405;-56
2022/05/22 05:59:46;;;;;;;3.37;1.27;;;;;;;;;;5009018;28;20736;-52
2022/05/22 06:02:12;;;;;;;1.83;1.20;;;;;;;;;;5015048;28;20732;-52
2022/05/22 06:04:39;;;;;;;3.17;1.30;;;;;;;;;;5021394;28;20461;-54
2022/05/22 06:07:04;;;;;;;3.97;1.30;;;;;;;;;;5016983;28;20104;-52
2022/05/22 06:09:29;;;;;;;3.03;1.40;;;;;;;;;;5013965;28;20124;-54
2022/05/22 06:11:54;;;;;;;2.97;1.50;;;;;;;;;;5022909;28;20737;-54
2022/05/22 06:14:20;;;;;;;4.97;1.50;;;;;;;;;;5022889;28;20496;-60
2022/05/22 06:16:45;;;;;;;4.07;1.63;;;;;;;;;;5022786;28;20511;-54
2022/05/22 06:19:10;;;;;;;3.28;1.50;;;;;;;;;;5011244;28;20546;-55
2022/05/22 06:21:35;;;;;;;4.03;1.20;;;;;;;;;;5015485;28;20472;-56
2022/05/22 06:24:00;;;;;;;4.27;1.53;;;;;;;;;;5018487;28;20559;-55
2022/05/22 06:26:26;;;;;;;5.70;1.57;;;;;;;;;;5007796;28;20025;-54
2022/05/22 06:28:51;;;;;;;3.57;1.50;;;;;;;;;;5013272;28;20061;-54
2022/05/22 06:31:17;;;;;;;3.80;1.38;;;;;;;;;;5019688;28;20129;-53
2022/05/22 06:33:42;;;;;;;3.70;1.50;;;;;;;;;;5012726;28;20021;-53
2022/05/22 06:36:12;;;;;;;3.57;1.40;;;;;;;;;;5007830;28;20014;-55
2022/05/22 06:41:21;;;;;;;3.85;1.30;;;;;;;;;;5008715;28;20064;-53
2022/05/22 06:43:51;;;;;;;3.00;1.30;;;;;;;;;;5006553;28;20038;-55
2022/05/22 06:46:16;;;;;;;2.47;1.40;;;;;;;;;;5014955;28;20136;-53
2022/05/22 06:48:42;;;;;;;2.63;1.20;;;;;;;;;;5015574;28;20538;-53
2022/05/22 06:51:07;;;;;;;3.37;1.30;;;;;;;;;;5006170;28;20280;-55
2022/05/22 06:53:32;;;;;;;5.80;1.30;;;;;;;;;;5006835;28;20025;-51
2022/05/22 06:55:57;;;;;;;2.20;1.27;;;;;;;;;;5013277;28;20287;-51
2022/05/22 06:58:23;;;;;;;3.20;1.50;;;;;;;;;;5008917;28;20041;-53
2022/05/22 07:00:51;;;;;;;3.13;1.20;;;;;;;;;;5004784;28;20034;-52
2022/05/22 07:03:17;;;;;;;2.67;1.15;;;;;;;;;;5009714;28;20064;-52
2022/05/22 07:05:42;;;;;;;3.60;1.33;;;;;;;;;;5003406;28;20069;-53
2022/05/22 07:08:08;;;;;;;2.30;1.30;;;;;;;;;;5009267;28;20561;-52
2022/05/22 07:13:18;;;;;;;2.85;1.00;;;;;;;;;;5019997;28;20095;-54
2022/05/22 07:15:43;;;;;;;2.35;1.05;;;;;;;;;;5023024;28;20484;-53
2022/05/22 07:18:09;;;;;;;2.50;1.27;;;;;;;;;;5016068;28;20059;-53
2022/05/22 07:20:34;;;;;;;3.20;1.23;;;;;;;;;;5020990;28;20068;-53
2022/05/22 07:22:59;;;;;;;4.60;1.40;;;;;;;;;;5011097;28;20268;-54
2022/05/22 07:25:26;;;;;;;2.63;1.10;;;;;;;;;;5017293;28;20315;-52
2022/05/22 07:27:51;;;;;;;2.35;1.30;;;;;;;;;;5012721;28;20045;-53
2022/05/22 07:30:16;;;;;;;1.90;1.30;;;;;;;;;;5009200;28;20539;-53
2022/05/22 07:32:42;;;;;;;3.77;1.30;;;;;;;;;;5017480;28;20287;-54
2022/05/22 07:35:08;;;;;;;2.03;1.17;;;;;;;;;;5015530;28;20271;-56
2022/05/22 07:37:33;;;;;;;2.75;1.38;;;;;;;;;;5008672;28;20009;-57
2022/05/22 07:39:58;;;;;;;2.22;1.13;;;;;;;;;;5003112;28;20029;-54
2022/05/22 07:42:24;;;;;;;8.23;1.20;;;;;;;;;;5003974;28;20515;-53
2022/05/22 07:44:49;;;;;;;4.60;1.30;;;;;;;;;;5014353;28;20013;-57
2022/05/22 07:47:15;;;;;;;4.50;1.90;;;;;;;;;;5002398;28;20775;-58
2022/05/22 07:52:24;;;;;;;4.15;1.52;;;;;;;;;;5003289;28;20268;-53
2022/05/22 07:54:49;;;;;;;3.43;1.50;;;;;;;;;;5009335;28;20021;-53
2022/05/22 07:57:14;;;;;;;6.13;1.67;;;;;;;;;;5008763;28;20038;-53
2022/05/22 07:59:39;;;;;;;3.93;1.60;;;;;;;;;;5019868;28;20838;-55
2022/05/22 08:02:05;;;;;;;3.00;1.33;;;;;;;;;;5017267;28;20554;-54
2022/05/22 08:04:31;;;;;;;3.67;1.40;;;;;;;;;;5001783;28;20148;-60
2022/05/22 08:06:56;;;;;;;5.10;1.47;;;;;;;;;;5004154;28;20030;-52
2022/05/22 08:09:21;;;;;;;4.03;1.70;;;;;;;;;;5005575;28;20790;-53
2022/05/22 08:11:46;;;;;;;4.17;1.30;;;;;;;;;;5005353;28;20265;-54
2022/05/22 08:14:12;;;;;;;3.67;1.63;;;;;;;;;;5013285;28;20030;-54
2022/05/22 08:16:37;;;;;;;2.25;1.30;;;;;;;;;;5016663;28;20021;-53
2022/05/22 08:19:02;;;;;;;3.92;1.48;;;;;;;;;;5020070;28;20069;-53
2022/05/22 08:21:27;;;;;;;4.80;1.50;;;;;;;;;;5020000;28;20025;-55
2022/05/22 08:23:53;;;;;;;4.40;1.65;;;;;;;;;;5019704;28;20663;-54
2022/05/22 08:26:18;;;;;;;2.50;1.60;;;;;;;;;;5020292;28;20116;-56
2022/05/22 08:28:44;;;;;;;4.73;1.43;;;;;;;;;;5017368;28;20833;-55
2022/05/22 08:31:11;;;;;;;4.88;1.63;;;;;;;;;;5005864;28;20287;-55
2022/05/22 08:33:36;;;;;;;4.28;1.52;;;;;;;;;;5017882;28;20025;-55
2022/05/22 08:36:02;;;;;;;5.05;1.65;;;;;;;;;;5016718;28;20477;-54
2022/05/22 08:38:28;;;;;;;3.45;1.40;;;;;;;;;;5018544;28;20405;-58
2022/05/22 08:40:57;;;;;;;4.28;1.38;;;;;;;;;;5018889;28;20623;-57
2022/05/22 08:43:24;;;;;;;3.50;1.42;;;;;;;;;;5020637;28;20013;-59
2022/05/22 08:45:53;;;;;;;3.03;1.60;;;;;;;;;;5022421;28;20044;-56
2022/05/22 08:48:21;;;;;;;3.87;1.70;;;;;;;;;;5039129;28;20025;-55
2022/05/22 08:50:47;;;;;;;2.90;1.38;;;;;;;;;;5023738;28;20022;-57
2022/05/22 08:53:17;;;;;;;4.07;1.57;;;;;;;;;;5038058;28;20020;-54
2022/05/22 08:58:59;;;;;;;2.58;1.60;;;;;;;;;;5023484;28;20044;-57
2022/05/22 09:01:30;;;;;;;3.97;1.88;;;;;;;;;;5020516;28;20029;-54
2022/05/22 09:03:55;;;;;;;3.63;1.60;;;;;;;;;;5022297;28;20033;-58
2022/05/22 09:06:30;;;;;;;4.63;1.73;;;;;;;;;;5023812;28;20017;-61
2022/05/22 09:08:56;;;;;;;5.28;1.60;;;;;;;;;;5025621;28;20029;-58
2022/05/22 09:11:40;;;;;;;3.13;1.47;;;;;;;;;;5023161;28;20709;-60
2022/05/22 09:14:09;;;;;;;3.33;1.50;;;;;;;;;;5019797;28;20037;-59
2022/05/22 09:16:40;;;;;;;3.75;1.70;;;;;;;;;;5021614;28;20500;-57
2022/05/22 09:19:09;;;;;;;2.95;1.50;;;;;;;;;;5016106;28;20044;-53
2022/05/22 09:21:54;;;;;;;2.70;1.38;;;;;;;;;;5024522;28;20146;-58
2022/05/22 09:24:38;;;;;;;5.00;1.80;;;;;;;;;;5022153;28;20510;-56
2022/05/22 09:27:22;;;;;;;2.63;1.83;;;;;;;;;;5008270;28;20656;-57
2022/05/22 09:29:59;;;;;;;3.58;1.60;;;;;;;;;;5022486;28;20941;-58
2022/05/22 09:32:43;;;;;;;1.90;1.40;;;;;;;;;;5020815;28;20041;-53
2022/05/22 09:35:29;;;;;;;3.67;1.77;;;;;;;;;;5015254;28;20014;-53
2022/05/22 09:38:18;;;;;;;2.72;1.65;;;;;;;;;;5019181;28;20025;-53
2022/05/22 09:40:44;;;;;;;2.78;1.63;;;;;;;;;;5013739;28;20033;-52
2022/05/22 09:43:11;;;;;;;5.95;1.88;;;;;;;;;;5012770;28;20022;-52
2022/05/22 09:45:36;;;;;;;2.45;1.40;;;;;;;;;;5018216;28;20480;-52
2022/05/22 09:48:16;;;;;;;4.07;1.70;;;;;;;;;;5015734;28;20026;-52
2022/05/22 09:50:42;;;;;;;3.30;1.40;;;;;;;;;;5012586;28;20025;-54
2022/05/22 09:53:25;;;;;;;2.87;1.10;;;;;;;;;;5010990;28;20119;-53
2022/05/22 09:55:51;;;;;;;2.03;1.17;;;;;;;;;;5015465;28;20039;-54
2022/05/22 09:58:31;;;;;;;2.85;1.40;;;;;;;;;;5022639;28;20389;-53
2022/05/22 10:00:58;;;;;;;2.55;1.63;;;;;;;;;;5020592;28;20029;-52
2022/05/22 10:03:42;;;;;;;2.97;1.35;;;;;;;;;;5034054;28;20414;-54
2022/05/22 10:06:13;;;;;;;4.03;1.15;;;;;;;;;;5023673;28;20076;-54
2022/05/22 10:08:55;;;;;;;2.30;1.45;;;;;;;;;;5037281;28;20032;-53
2022/05/22 10:11:20;;;;;;;3.35;1.23;;;;;;;;;;5035424;28;20013;-53
2022/05/22 10:14:04;;;;;;;3.37;1.37;;;;;;;;;;5022239;28;20013;-53
2022/05/22 10:16:36;;;;;;;1.67;1.23;;;;;;;;;;5022341;28;20269;-53
2022/05/22 10:19:10;;;;;;;2.50;1.20;;;;;;;;;;5030584;28;20120;-52
2022/05/22 10:21:39;;;;;;;3.38;1.60;;;;;;;;;;5018077;28;20029;-57
2022/05/22 10:24:04;;;;;;;2.63;1.10;;;;;;;;;;5025367;28;20551;-53
2022/05/22 10:26:48;;;;;;;1.73;1.17;;;;;;;;;;5023907;28;20033;-53
2022/05/22 10:29:31;;;;;;;2.10;1.30;;;;;;;;;;5021791;28;20292;-53
2022/05/22 10:31:59;;;;;;;4.43;1.40;;;;;;;;;;5031442;28;20025;-56
2022/05/22 10:34:35;;;;;;;4.05;1.50;;;;;;;;;;5034675;28;20234;-54
2022/05/22 10:37:03;;;;;;;3.05;1.30;;;;;;;;;;5015159;28;20017;-55
2022/05/22 10:39:28;;;;;;;2.65;1.27;;;;;;;;;;5018345;28;20048;-56
2022/05/22 10:44:57;;;;;;;3.42;1.40;;;;;;;;;;5019664;28;20291;-55
2022/05/22 10:47:29;;;;;;;3.08;1.30;;;;;;;;;;5033035;28;20053;-57
2022/05/22 10:49:54;;;;;;;2.25;1.38;;;;;;;;;;5017946;28;20029;-55
2022/05/22 10:52:24;;;;;;;2.53;1.30;;;;;;;;;;5017030;28;20071;-52
2022/05/22 10:54:50;;;;;;;;;;;;;;;;;;5019866;28;20275;-57
2022/05/22 10:57:17;;;;;;;1.75;1.25;;;;;;;;;;5018904;28;20552;-55
2022/05/22 10:59:42;;;;;;;2.30;1.05;;;;;;;;;;5021142;28;20026;-59
2022/05/22 11:02:14;;;;;;;3.27;1.30;;;;;;;;;;5020717;28;20024;-57
2022/05/22 11:04:40;;;;;;;3.70;1.50;;;;;;;;;;5018226;28;20268;-54
2022/05/22 11:07:06;;;;;;;2.50;1.38;;;;;;;;;;5018783;28;20397;-52
2022/05/22 11:09:32;;;;;;;3.97;1.52;;;;;;;;;;5021459;28;20051;-52
2022/05/22 11:12:10;;;;;;;3.47;1.27;;;;;;;;;;5023165;28;20033;-53
2022/05/22 11:14:35;;;;;;;1.98;1.13;;;;;;;;;;5019850;28;20090;-52
2022/05/22 11:17:10;;;;;;;3.93;1.43;;;;;;;;;;5016989;28;20021;-53
2022/05/22 11:19:37;;;;;;;3.75;1.50;;;;;;;;;;5013476;28;20394;-56
2022/05/22 11:22:21;;;;;;;1.92;1.15;;;;;;;;;;5014978;28;20101;-55
2022/05/22 11:25:02;;;;;;;1.95;1.20;;;;;;;;;;5021169;28;20032;-54
2022/05/22 11:27:45;;;;;;;6.13;1.70;;;;;;;;;;5022070;28;20108;-53
2022/05/22 11:30:16;;;;;;;1.98;1.30;;;;;;;;;;5004361;28;20050;-56
2022/05/22 11:32:41;;;;;;;2.38;1.30;;;;;;;;;;5008621;28;20461;-55
2022/05/22 11:35:10;;;;;;;3.13;1.33;;;;;;;;;;5017814;28;20586;-53
2022/05/22 11:37:49;;;;;;;4.05;1.42;;;;;;;;;;5031919;28;20284;-54
2022/05/22 11:40:20;;;;;;;4.93;1.50;;;;;;;;;;5017182;28;20048;-54
2022/05/22 11:42:45;;;;;;;2.42;1.10;;;;;;;;;;5035386;28;20017;-53
2022/05/22 11:45:10;;;;;;;2.60;1.30;;;;;;;;;;5014819;28;20467;-55
2022/05/22 11:47:46;;;;;;;1.93;1.50;;;;;;;;;;5010808;28;20021;-54
2022/05/22 11:50:18;;;;;;;2.63;1.20;;;;;;;;;;5002278;28;20460;-56
2022/05/22 11:53:06;;;;;;;3.97;1.23;;;;;;;;;;5004422;28;20112;-53
2022/05/22 11:55:51;;;;;;;3.67;1.40;;;;;;;;;;4990554;28;20111;-53
2022/05/22 11:58:36;;;;;;;3.65;1.45;;;;;;;;;;5006111;28;20037;-54
2022/05/22 12:01:20;;;;;;;1.95;1.20;;;;;;;;;;5008935;28;20563;-54
2022/05/22 12:03:59;;;;;;;2.85;1.20;;;;;;;;;;5016965;28;20227;-54
2022/05/22 12:06:30;;;;;;;3.85;1.70;;;;;;;;;;5035912;28;20017;-53
2022/05/22 12:09:07;;;;;;;1.90;1.10;;;;;;;;;;5036100;28;20057;-53
2022/05/22 12:11:34;;;;;;;5.53;1.50;;;;;;;;;;5021296;28;20013;-52
2022/05/22 12:14:17;;;;;;;2.33;1.20;;;;;;;;;;5007197;28;20116;-55
2022/05/22 12:17:03;;;;;;;3.63;1.52;;;;;;;;;;5005717;28;20609;-55
2022/05/22 12:19:32;;;;;;;3.05;1.38;;;;;;;;;;5016828;28;20099;-53
2022/05/22 12:22:04;;;;;;;3.25;1.30;;;;;;;;;;5015670;28;20109;-52
2022/05/22 12:24:38;;;;;;;4.65;1.98;;;;;;;;;;5019604;28;20063;-53
2022/05/22 12:27:05;;;;;;;4.80;2.00;;;;;;;;;;5025391;28;20037;-54
2022/05/22 12:29:34;;;;;;;3.35;1.75;;;;;;;;;;5010455;28;20048;-53
2022/05/22 12:32:03;;;;;;;5.32;1.88;;;;;;;;;;5005366;28;20221;-54
2022/05/22 12:34:28;;;;;;;4.27;1.60;;;;;;;;;;5005473;28;20025;-54
2022/05/22 12:36:53;;;;;;;2.83;1.77;;;;;;;;;;5007366;28;20405;-53
2022/05/22 12:39:19;;;;;;;3.22;1.80;;;;;;;;;;5029786;28;20077;-53
2022/05/22 12:42:00;;;;;;;2.70;1.70;;;;;;;;;;5006494;28;20022;-52
2022/05/22 12:44:28;;;;;;;3.22;1.48;;;;;;;;;;5016482;28;20036;-55
2022/05/22 12:46:53;;;;;;;2.58;1.70;;;;;;;;;;5004996;28;20520;-55
2022/05/22 12:49:20;;;;;;;4.57;1.70;;;;;;;;;;5014420;28;20018;-54
2022/05/22 12:51:55;;;;;;;3.67;1.35;;;;;;;;;;5008106;28;20045;-52
2022/05/22 12:54:23;;;;;;;3.00;1.35;;;;;;;;;;5008191;28;20021;-56
2022/05/22 12:56:48;;;;;;;2.97;1.70;;;;;;;;;;5009634;28;20063;-54
2022/05/22 12:59:19;;;;;;;3.75;1.65;;;;;;;;;;5010972;28;20512;-55
2022/05/22 13:01:45;;;;;;;2.03;1.20;;;;;;;;;;5002997;28;20387;-53
2022/05/22 13:04:22;;;;;;;3.17;1.40;;;;;;;;;;5024564;28;20516;-56
2022/05/22 13:06:51;;;;;;;2.85;1.50;;;;;;;;;;5011272;28;20029;-54
2022/05/22 13:09:23;;;;;;;2.65;1.50;;;;;;;;;;5007291;28;20022;-54
2022/05/22 13:11:52;;;;;;;2.20;1.42;;;;;;;;;;5000507;28;20469;-52
2022/05/22 13:14:23;;;;;;;2.85;1.38;;;;;;;;;;5011035;28;20040;-52
2022/05/22 13:16:48;;;;;;;2.63;1.40;;;;;;;;;;5016660;28;20710;-52
2022/05/22 13:19:18;;;;;;;5.60;1.58;;;;;;;;;;5025740;28;20038;-53
2022/05/22 13:21:43;;;;;;;3.00;1.83;;;;;;;;;;5032710;28;20026;-53
2022/05/22 13:24:17;;;;;;;2.53;1.30;;;;;;;;;;5009138;28;20026;-53
2022/05/22 13:26:53;;;;;;;3.15;1.55;;;;;;;;;;5011151;28;20100;-54
2022/05/22 13:29:19;;;;;;;1.77;1.27;;;;;;;;;;5013480;28;20045;-58
2022/05/22 13:31:49;;;;;;;2.42;1.50;;;;;;;;;;5005685;28;20077;-58
2022/05/22 13:34:14;;;;;;;;;;;;;;;;;;5008594;28;20021;-54
2022/05/22 13:36:58;;;;;;;2.83;1.83;;;;;;;;;;5009004;28;19913;-53
2022/05/22 13:39:26;;;;;;;2.45;1.75;;;;;;;;;;5009038;28;20033;-54
2022/05/22 13:42:06;;;;;;;2.38;1.67;;;;;;;;;;5021556;28;20036;-53
2022/05/22 13:44:37;;;;;;;3.47;1.70;;;;;;;;;;5022362;28;20021;-54
2022/05/22 13:47:21;;;;;;;2.08;1.42;;;;;;;;;;5032651;28;20052;-51
2022/05/22 13:52:49;;;;;;;3.55;1.63;;;;;;;;;;5017876;28;20086;-53
2022/05/22 13:55:21;;;;;;;2.25;1.60;;;;;;;;;;5022303;28;20044;-53
2022/05/22 13:57:51;;;;;;;2.92;1.60;;;;;;;;;;5035714;28;20017;-52
2022/05/22 14:00:20;;;;;;;2.60;1.50;;;;;;;;;;5018072;28;20795;-52
2022/05/22 14:02:45;;;;;;;2.00;1.50;;;;;;;;;;5017794;28;20407;-53
2022/05/22 14:05:10;;;;;;;4.37;1.87;;;;;;;;;;5021469;28;20036;-52
2022/05/22 14:07:43;;;;;;;3.78;1.70;;;;;;;;;;5021957;28;20040;-52
2022/05/22 14:10:09;;;;;;;2.42;1.40;;;;;;;;;;5033588;28;20100;-53
2022/05/22 14:12:37;;;;;;;2.00;1.70;;;;;;;;;;5021122;28;20102;-54
2022/05/22 14:15:29;;;;;;;4.18;1.92;;;;;;;;;;5022219;28;20033;-55
2022/05/22 14:17:54;;;;;;;5.25;1.60;;;;;;;;;;5015105;28;20029;-54
2022/05/22 14:20:20;;;;;;;4.17;1.83;;;;;;;;;;5030452;28;21477;-53
2022/05/22 14:22:46;;;;;;;4.07;1.73;;;;;;;;;;5018107;28;20275;-55
2022/05/22 14:25:12;;;;;;;2.10;1.45;;;;;;;;;;5023196;28;20037;-52
2022/05/22 14:27:39;;;;;;;2.30;1.50;;;;;;;;;;5022980;28;20026;-53
2022/05/22 14:30:39;;;;;;;2.40;1.50;;;;;;;;;;5034464;28;20930;-54
2022/05/22 14:33:08;;;;;;;3.83;1.55;;;;;;;;;;5020142;28;20029;-55
2022/05/22 14:35:34;;;;;;;1.70;1.35;;;;;;;;;;5020012;28;20045;-53
2022/05/22 14:38:15;;;;;;;3.00;1.55;;;;;;;;;;5027502;28;20553;-53
2022/05/22 14:40:42;;;;;;;3.63;1.73;;;;;;;;;;5023818;28;20025;-53
2022/05/22 14:43:08;;;;;;;3.97;1.70;;;;;;;;;;5037332;28;20076;-53
2022/05/22 14:45:34;;;;;;;2.67;1.50;;;;;;;;;;5023498;28;20018;-54
2022/05/22 14:48:01;;;;;;;3.05;1.52;;;;;;;;;;5032136;28;20030;-53
2022/05/22 14:50:26;;;;;;;3.97;1.70;;;;;;;;;;5036407;28;20017;-53
2022/05/22 14:52:56;;;;;;;3.33;1.30;;;;;;;;;;5020221;28;20048;-53
2022/05/22 14:55:25;;;;;;;1.92;1.38;;;;;;;;;;5018913;28;20033;-53
2022/05/22 14:57:53;;;;;;;2.83;1.60;;;;;;;;;;5012623;28;20052;-52
2022/05/22 15:00:19;;;;;;;3.28;1.63;;;;;;;;;;5006261;28;20037;-51
2022/05/22 15:03:02;;;;;;;3.55;1.60;;;;;;;;;;5014253;28;20029;-51
2022/05/22 15:05:30;;;;;;;4.25;1.40;;;;;;;;;;5020371;28;20027;-52
2022/05/22 15:07:57;;;;;;;2.90;1.55;;;;;;;;;;5030382;28;20061;-55
2022/05/22 15:10:24;;;;;;;1.75;1.35;;;;;;;;;;5003663;28;20029;-53
2022/05/22 15:12:50;;;;;;;3.30;1.48;;;;;;;;;;5004185;28;20050;-53